America, Illinois
Current Conditions -  °F | °C
As of 8:55 AM on Monday 22 Dec 2014 (Local Time) from KCIR Reporting Station
Drizzle Drizzle  
Wind Chill: 46°   Ceiling: 800
Heat Index: 49°   Visibility: 2.5mi
Dew Point: 48°   Wind: 8mph
Humidity: 95%   Direction: 150°SSE
Pressure: 29.83"   Gusts: NA
Location:  37.1575°N, 89.1781°W
Report Text: KCIR 221455Z AUTO 15007KT 2 1/2SM -DZ OVC008 10/09 A2983 RMK AO2 T00970089
Loading
Personal Weather Stations






























Interactive Weather Map New forecast layout! Learn more

10-Day Weather Forecast

Advertisements
Track Severe Weather on mobile